createdAt,value
2023-05-11T00:00:47.460Z,96802.59
2023-05-11T00:03:13.853Z,96805.81
2023-05-11T00:05:40.351Z,96807.97
2023-05-11T00:08:06.623Z,96807.97
2023-05-11T00:10:32.939Z,96802.59
2023-05-11T00:12:59.200Z,96799.88
2023-05-11T00:15:25.474Z,96801.25
2023-05-11T00:17:51.824Z,96809.56
2023-05-11T00:20:18.601Z,96796.13
2023-05-11T00:22:45.174Z,96798.00
2023-05-11T00:25:11.427Z,96796.13
2023-05-11T00:27:37.682Z,96792.38
2023-05-11T00:30:03.924Z,96787.25
2023-05-11T00:32:30.201Z,96787.22
2023-05-11T00:34:56.465Z,96793.41
2023-05-11T00:37:22.713Z,96796.59
2023-05-11T00:39:48.984Z,96782.63
2023-05-11T00:42:15.242Z,96785.19
2023-05-11T00:44:41.546Z,96784.66
2023-05-11T00:47:07.996Z,96786.25
2023-05-11T00:49:34.311Z,96785.34
2023-05-11T00:52:00.577Z,96783.41
2023-05-11T00:54:26.847Z,96781.75
2023-05-11T00:56:53.099Z,96779.63
2023-05-11T00:59:19.367Z,96778.56
2023-05-11T01:01:45.685Z,96778.84
2023-05-11T01:04:11.998Z,96778.06
2023-05-11T01:06:38.258Z,96777.53
2023-05-11T01:09:04.524Z,96774.88
2023-05-11T01:11:30.957Z,96779.97
2023-05-11T01:13:57.260Z,96775.47
2023-05-11T01:16:23.598Z,96769.59
2023-05-11T01:18:49.906Z,96782.75
2023-05-11T01:21:16.189Z,96776.06
2023-05-11T01:23:42.432Z,96783.19
2023-05-11T01:26:08.725Z,96782.38
2023-05-11T01:28:34.997Z,96782.59
2023-05-11T01:31:01.271Z,96780.34
2023-05-11T01:33:27.527Z,96782.13
2023-05-11T01:35:53.802Z,96779.47
2023-05-11T01:38:20.091Z,96769.56
2023-05-11T01:40:46.377Z,96778.38
2023-05-11T01:43:12.638Z,96775.22
2023-05-11T01:45:38.949Z,96769.63
2023-05-11T01:48:05.321Z,96772.53
2023-05-11T01:50:31.629Z,96769.34
2023-05-11T01:52:57.942Z,96776.03
2023-05-11T01:55:24.206Z,96772.03
2023-05-11T01:57:50.465Z,96774.72
2023-05-11T02:00:16.885Z,96773.97
2023-05-11T02:02:43.462Z,96767.81
2023-05-11T02:05:09.801Z,96771.59
2023-05-11T02:07:36.072Z,96768.94
2023-05-11T02:10:02.370Z,96767.34
2023-05-11T02:12:28.620Z,96764.16
2023-05-11T02:14:54.880Z,96764.16
2023-05-11T02:17:21.135Z,96763.09
2023-05-11T02:19:47.389Z,96762.63
2023-05-11T02:22:13.685Z,96765.03
2023-05-11T02:24:39.966Z,96759.94
2023-05-11T02:27:06.221Z,96763.19
2023-05-11T02:29:32.533Z,96758.63
2023-05-11T02:31:58.813Z,96758.88
2023-05-11T02:34:25.066Z,96760.50
2023-05-11T02:36:51.394Z,96760.75
2023-05-11T02:39:17.658Z,96762.91
2023-05-11T02:41:43.924Z,96760.25
2023-05-11T02:44:10.271Z,96761.03
2023-05-11T02:46:36.564Z,96755.69
2023-05-11T02:49:02.874Z,96759.44
2023-05-11T02:51:29.128Z,96755.94
2023-05-11T02:53:55.406Z,96755.94
2023-05-11T02:56:21.665Z,96754.31
2023-05-11T02:58:47.928Z,96759.66
2023-05-11T03:01:14.284Z,96755.38
2023-05-11T03:03:40.711Z,96755.31
2023-05-11T03:06:06.980Z,96746.19
2023-05-11T03:08:33.252Z,96740.81
2023-05-11T03:10:59.512Z,96748.31
2023-05-11T03:13:25.804Z,96753.38
2023-05-11T03:15:52.072Z,96748.03
2023-05-11T03:18:18.350Z,96745.59
2023-05-11T03:20:44.637Z,96739.97
2023-05-11T03:23:10.902Z,96742.38
2023-05-11T03:25:37.164Z,96738.38
2023-05-11T03:28:03.401Z,96738.31
2023-05-11T03:30:29.652Z,96742.06
2023-05-11T03:32:55.992Z,96735.91
2023-05-11T03:35:22.269Z,96735.09
2023-05-11T03:37:48.520Z,96730.78
2023-05-11T03:40:14.811Z,96730.78
2023-05-11T03:42:41.079Z,96724.88
2023-05-11T03:45:07.336Z,96723.28
2023-05-11T03:47:33.631Z,96725.41
2023-05-11T03:49:59.918Z,96718.44
2023-05-11T03:52:26.171Z,96723.78
2023-05-11T03:54:52.452Z,96720.84
2023-05-11T03:57:18.731Z,96725.91
2023-05-11T03:59:44.981Z,96718.94
2023-05-11T04:02:11.302Z,96716.53
2023-05-11T04:04:37.582Z,96728.03
2023-05-11T04:07:03.903Z,96720.78
2023-05-11T04:09:30.204Z,96724.28
2023-05-11T04:11:56.461Z,96724.28
2023-05-11T04:14:22.717Z,96722.09
2023-05-11T04:16:48.979Z,96723.41
2023-05-11T04:19:15.234Z,96724.16
2023-05-11T04:21:41.490Z,96722.81
2023-05-11T04:24:07.763Z,96720.63
2023-05-11T04:26:34.043Z,96718.75
2023-05-11T04:29:00.289Z,96719.81
2023-05-11T04:31:26.588Z,96712.59
2023-05-11T04:33:52.848Z,96716.63
2023-05-11T04:36:19.094Z,96713.41
2023-05-11T04:38:45.324Z,96716.13
2023-05-11T04:41:11.589Z,96717.47
2023-05-11T04:43:37.852Z,96712.41
2023-05-11T04:46:04.120Z,96709.19
2023-05-11T04:48:30.368Z,96715.06
2023-05-11T04:50:56.704Z,96717.22
2023-05-11T04:53:22.960Z,96718.31
2023-05-11T04:55:49.296Z,96716.19
2023-05-11T04:58:15.541Z,96712.94
2023-05-11T05:00:41.952Z,96713.78
2023-05-11T05:03:08.349Z,96717.56
2023-05-11T05:05:34.642Z,96715.72
2023-05-11T05:08:00.911Z,96713.59
2023-05-11T05:10:27.157Z,96719.22
2023-05-11T05:12:53.418Z,96719.53
2023-05-11T05:15:19.708Z,96715.25
2023-05-11T05:17:45.977Z,96717.16
2023-05-11T05:20:12.282Z,96719.31
2023-05-11T05:22:38.546Z,96711.53
2023-05-11T05:25:04.871Z,96718.53
2023-05-11T05:27:32.873Z,96717.19
2023-05-11T05:30:00.948Z,96719.34
2023-05-11T05:32:27.270Z,96720.19
2023-05-11T05:34:53.560Z,96715.38
2023-05-11T05:37:19.819Z,96717.00
2023-05-11T05:39:48.346Z,96718.09
2023-05-11T05:42:14.782Z,96714.59
2023-05-11T05:44:41.063Z,96719.16
2023-05-11T05:47:07.330Z,96718.53
2023-05-11T05:49:33.603Z,96723.38
2023-05-11T05:51:59.886Z,96719.63
2023-05-11T05:54:26.186Z,96716.41
2023-05-11T05:56:52.441Z,96722.81
2023-05-11T05:59:18.698Z,96719.63
2023-05-11T06:01:44.969Z,96718.00
2023-05-11T06:04:11.367Z,96723.38
2023-05-11T06:06:37.648Z,96724.41
2023-05-11T06:09:03.914Z,96716.66
2023-05-11T06:11:30.177Z,96718.22
2023-05-11T06:13:56.450Z,96726.03
2023-05-11T06:16:22.715Z,96719.31
2023-05-11T06:18:49.075Z,96719.88
2023-05-11T06:21:15.354Z,96721.75
2023-05-11T06:23:41.624Z,96715.59
2023-05-11T06:26:07.888Z,96719.28
2023-05-11T06:28:34.158Z,96720.66
2023-05-11T06:31:00.444Z,96720.06
2023-05-11T06:33:26.701Z,96717.41
2023-05-11T06:35:53.040Z,96720.59
2023-05-11T06:38:19.318Z,96709.34
2023-05-11T06:40:45.576Z,96708.56
2023-05-11T06:43:11.844Z,96711.22
2023-05-11T06:45:38.154Z,96711.22
2023-05-11T06:48:04.437Z,96714.34
2023-05-11T06:50:30.895Z,96705.28
2023-05-11T06:52:57.324Z,96701.53
2023-05-11T06:55:23.588Z,96704.56
2023-05-11T06:57:49.880Z,96698.69
2023-05-11T07:00:16.284Z,96701.63
2023-05-11T07:02:42.655Z,96702.22
2023-05-11T07:05:08.971Z,96700.66
2023-05-11T07:07:35.302Z,96706.03
2023-05-11T07:10:01.575Z,96701.78
2023-05-11T07:12:27.849Z,96705.03
2023-05-11T07:14:54.094Z,96700.19
2023-05-11T07:17:20.409Z,96706.94
2023-05-11T07:19:46.771Z,96709.63
2023-05-11T07:22:14.875Z,96703.44
2023-05-11T07:24:41.420Z,96702.94
2023-05-11T07:27:07.687Z,96704.81
2023-05-11T07:29:33.924Z,96707.22
2023-05-11T07:32:00.219Z,96698.63
2023-05-11T07:34:26.524Z,96701.59
2023-05-11T07:36:52.791Z,96698.38
2023-05-11T07:39:19.067Z,96695.69
2023-05-11T07:41:45.350Z,96694.09
2023-05-11T07:44:11.716Z,96699.47
2023-05-11T07:46:38.110Z,96697.59
2023-05-11T07:49:15.677Z,96699.19
2023-05-11T07:51:45.054Z,96694.34
2023-05-11T07:54:11.336Z,96692.75
2023-05-11T07:56:37.607Z,96694.88
2023-05-11T07:59:03.903Z,96686.28
2023-05-11T08:01:30.172Z,96686.81
2023-05-11T08:03:56.454Z,96696.19
2023-05-11T08:06:22.749Z,96687.03
2023-05-11T08:08:49.107Z,96688.66
2023-05-11T08:11:15.351Z,96690.03
2023-05-11T08:13:41.621Z,96681.41
2023-05-11T08:16:07.981Z,96687.84
2023-05-11T08:18:34.264Z,96684.06
2023-05-11T08:21:00.576Z,96682.22
2023-05-11T08:23:26.969Z,96680.31
2023-05-11T08:25:53.219Z,96677.09
2023-05-11T08:28:19.486Z,96678.69
2023-05-11T08:30:45.731Z,96676.28
2023-05-11T08:33:32.111Z,96671.69
2023-05-11T08:35:58.240Z,96670.31
2023-05-11T08:38:24.513Z,96672.19
2023-05-11T08:40:50.798Z,96679.44
2023-05-11T08:43:17.049Z,96672.44
2023-05-11T08:45:43.338Z,96667.06
2023-05-11T08:48:09.650Z,96671.09
2023-05-11T08:50:35.937Z,96665.41
2023-05-11T08:53:02.198Z,96668.06
2023-05-11T08:55:28.466Z,96661.91
2023-05-11T08:57:54.729Z,96662.47
2023-05-11T09:00:21.092Z,96661.09
2023-05-11T09:02:47.392Z,96662.72
2023-05-11T09:05:13.721Z,96655.44
2023-05-11T09:07:39.994Z,96650.88
2023-05-11T09:10:06.252Z,96651.41
2023-05-11T09:12:32.524Z,96659.47
2023-05-11T09:15:02.007Z,96656.19
2023-05-11T09:17:28.720Z,96650.81
2023-05-11T09:19:54.987Z,96651.34
2023-05-11T09:22:21.258Z,96652.16
2023-05-11T09:24:47.537Z,96657.00
2023-05-11T09:27:13.950Z,96654.00
2023-05-11T09:29:40.321Z,96649.38
2023-05-11T09:32:06.613Z,96650.19
2023-05-11T09:34:32.919Z,96641.38
2023-05-11T09:36:59.217Z,96645.41
2023-05-11T09:39:35.556Z,96647.53
2023-05-11T09:42:05.720Z,96642.66
2023-05-11T09:44:32.023Z,96639.41
2023-05-11T09:46:58.258Z,96634.53
2023-05-11T09:49:24.494Z,96626.16
2023-05-11T09:51:50.751Z,96626.38
2023-05-11T09:54:17.014Z,96630.06
2023-05-11T09:56:43.284Z,96623.84
2023-05-11T09:59:09.544Z,96624.72
2023-05-11T10:01:35.834Z,96629.03
2023-05-11T10:04:13.911Z,96618.44
2023-05-11T10:06:48.399Z,96628.13
2023-05-11T10:09:14.675Z,96625.22
2023-05-11T10:11:40.945Z,96614.91
2023-05-11T10:14:07.244Z,96618.66
2023-05-11T10:16:33.712Z,96619.19
2023-05-11T10:19:00.098Z,96622.91
2023-05-11T10:21:26.442Z,96626.13
2023-05-11T10:23:52.685Z,96619.09
2023-05-11T10:26:18.924Z,96626.38
2023-05-11T10:28:45.229Z,96626.09
2023-05-11T10:31:11.502Z,96627.19
2023-05-11T10:33:37.768Z,96629.63
2023-05-11T10:36:04.019Z,96624.81
2023-05-11T10:38:30.341Z,96632.38
2023-05-11T10:40:56.608Z,96628.34
2023-05-11T10:43:22.878Z,96629.47
2023-05-11T10:45:49.157Z,96617.94
2023-05-11T10:48:15.463Z,96627.94
2023-05-11T10:50:43.367Z,96613.53
2023-05-11T10:53:09.922Z,96611.94
2023-05-11T10:55:36.186Z,96601.50
2023-05-11T10:58:02.439Z,96605.28
2023-05-11T11:00:28.764Z,96599.88
2023-05-11T11:02:55.184Z,96598.00
2023-05-11T11:05:21.705Z,96607.69
2023-05-11T11:07:48.151Z,96600.72
2023-05-11T11:10:14.453Z,96606.38
2023-05-11T11:12:40.716Z,96605.50
2023-05-11T11:15:07.051Z,96599.59
2023-05-11T11:17:33.378Z,96605.50
2023-05-11T11:19:59.653Z,96599.09
2023-05-11T11:22:25.901Z,96599.09
2023-05-11T11:24:52.172Z,96592.59
2023-05-11T11:27:18.417Z,96601.44
2023-05-11T11:29:44.718Z,96599.25
2023-05-11T11:32:10.992Z,96592.50
2023-05-11T11:34:37.239Z,96589.22
2023-05-11T11:37:03.542Z,96590.81
2023-05-11T11:39:29.837Z,96585.19
2023-05-11T11:41:56.101Z,96583.56
2023-05-11T11:44:22.357Z,96589.50
2023-05-11T11:46:48.655Z,96582.22
2023-05-11T11:49:14.968Z,96586.53
2023-05-11T11:51:41.263Z,96579.81
2023-05-11T11:54:07.511Z,96579.53
2023-05-11T11:56:33.777Z,96571.75
2023-05-11T11:59:00.037Z,96567.16
2023-05-11T12:01:26.311Z,96570.13
2023-05-11T12:03:52.755Z,96566.34
2023-05-11T12:06:19.071Z,96567.75
2023-05-11T12:08:45.311Z,96568.81
2023-05-11T12:11:11.587Z,96557.25
2023-05-11T12:13:37.853Z,96562.66
2023-05-11T12:16:04.144Z,96556.97
2023-05-11T12:18:30.454Z,96563.38
2023-05-11T12:20:56.734Z,96551.31
2023-05-11T12:23:23.018Z,96551.28
2023-05-11T12:25:49.279Z,96549.09
2023-05-11T12:28:15.565Z,96542.31
2023-05-11T12:30:41.877Z,96542.97
2023-05-11T12:33:08.198Z,96543.78
2023-05-11T12:35:34.514Z,96540.53
2023-05-11T12:38:00.777Z,96539.69
2023-05-11T12:40:27.065Z,96543.13
2023-05-11T12:42:53.328Z,96540.66
2023-05-11T12:45:19.996Z,96536.25
2023-05-11T12:47:46.460Z,96533.22
2023-05-11T12:50:12.735Z,96523.53
2023-05-11T12:52:38.980Z,96522.88
2023-05-11T12:55:05.282Z,96515.78
2023-05-11T12:57:31.538Z,96516.69
2023-05-11T12:59:57.778Z,96509.22
2023-05-11T13:02:24.071Z,96500.63
2023-05-11T13:04:50.354Z,96496.72
2023-05-11T13:07:16.603Z,96497.88
2023-05-11T13:09:42.869Z,96491.88
2023-05-11T13:12:09.147Z,96485.16
2023-05-11T13:14:35.410Z,96482.34
2023-05-11T13:17:01.651Z,96475.69
2023-05-11T13:19:28.231Z,96474.47
2023-05-11T13:21:54.528Z,96470.03
2023-05-11T13:24:20.793Z,96469.31
2023-05-11T13:26:47.067Z,96467.34
2023-05-11T13:29:13.335Z,96463.34
2023-05-11T13:31:39.647Z,96462.38
2023-05-11T13:34:05.957Z,96458.38
2023-05-11T13:36:34.285Z,96448.22
2023-05-11T13:39:00.677Z,96449.00
2023-05-11T13:41:26.956Z,96444.16
2023-05-11T13:43:53.205Z,96443.50
2023-05-11T13:46:19.462Z,96441.81
2023-05-11T13:48:45.765Z,96434.44
2023-05-11T13:51:12.042Z,96427.75
2023-05-11T13:53:38.326Z,96428.75
2023-05-11T13:56:04.591Z,96430.75
2023-05-11T13:58:30.840Z,96430.66
2023-05-11T14:01:07.816Z,96423.22
2023-05-11T14:03:34.993Z,96427.66
2023-05-11T14:06:01.386Z,96415.47
2023-05-11T14:08:27.644Z,96410.78
2023-05-11T14:10:53.937Z,96412.31
2023-05-11T14:13:20.197Z,96409.69
2023-05-11T14:15:46.463Z,96407.13
2023-05-11T14:18:13.057Z,96406.84
2023-05-11T14:20:39.542Z,96403.53
2023-05-11T14:23:05.811Z,96403.56
2023-05-11T14:25:32.049Z,96408.38
2023-05-11T14:27:58.331Z,96414.94
2023-05-11T14:30:24.583Z,96414.72
2023-05-11T14:32:51.290Z,96419.94
2023-05-11T14:35:17.878Z,96416.91
2023-05-11T14:37:44.371Z,96410.13
2023-05-11T14:40:10.639Z,96411.41
2023-05-11T14:42:36.941Z,96414.31
2023-05-11T14:45:03.294Z,96416.41
2023-05-11T14:47:29.567Z,96419.31
2023-05-11T14:49:55.839Z,96419.00
2023-05-11T14:52:22.108Z,96418.72
2023-05-11T14:54:48.387Z,96409.78
2023-05-11T14:57:14.637Z,96411.09
2023-05-11T14:59:51.097Z,96414.69
2023-05-11T15:02:17.809Z,96414.63
2023-05-11T15:04:44.075Z,96406.47
2023-05-11T15:07:10.332Z,96411.91
2023-05-11T15:09:36.588Z,96408.41
2023-05-11T15:12:02.833Z,96412.38
2023-05-11T15:14:29.089Z,96404.13
2023-05-11T15:16:55.356Z,96405.44
2023-05-11T15:19:21.599Z,96403.50
2023-05-11T15:21:47.848Z,96400.69
2023-05-11T15:24:14.138Z,96402.22
2023-05-11T15:26:40.413Z,96392.69
2023-05-11T15:29:06.674Z,96389.72
2023-05-11T15:31:32.959Z,96391.19
2023-05-11T15:33:59.319Z,96390.69
2023-05-11T15:36:26.963Z,96382.16
2023-05-11T15:38:55.208Z,96391.22
2023-05-11T15:41:21.470Z,96388.31
2023-05-11T15:43:47.751Z,96384.63
2023-05-11T15:46:14.047Z,96389.44
2023-05-11T15:48:40.320Z,96380.84
2023-05-11T15:51:06.568Z,96379.09
2023-05-11T15:53:32.849Z,96380.22
2023-05-11T15:55:59.151Z,96385.50
2023-05-11T15:58:25.401Z,96391.84
2023-05-11T16:00:51.956Z,96393.03
2023-05-11T16:03:18.460Z,96390.19
2023-05-11T16:05:44.934Z,96392.97
2023-05-11T16:08:11.255Z,96382.41
2023-05-11T16:10:37.536Z,96378.09
2023-05-11T16:13:03.816Z,96384.22
2023-05-11T16:15:30.078Z,96387.13
2023-05-11T16:17:56.332Z,96395.03
2023-05-11T16:20:22.638Z,96387.34
2023-05-11T16:22:48.921Z,96394.63
2023-05-11T16:25:15.171Z,96390.03
2023-05-11T16:27:41.468Z,96391.81
2023-05-11T16:30:21.685Z,96394.81
2023-05-11T16:32:50.288Z,96394.47
2023-05-11T16:35:16.586Z,96400.03
2023-05-11T16:37:42.845Z,96407.16
2023-05-11T16:40:09.079Z,96401.56
2023-05-11T16:42:35.335Z,96405.91
2023-05-11T16:45:01.597Z,96402.78
2023-05-11T16:47:27.907Z,96409.19
2023-05-11T16:49:54.171Z,96411.72
2023-05-11T16:52:20.454Z,96411.53
2023-05-11T16:54:46.698Z,96415.09
2023-05-11T16:57:12.956Z,96422.94
2023-05-11T16:59:39.228Z,96420.81
2023-05-11T17:02:05.650Z,96414.41
2023-05-11T17:04:32.005Z,96424.22
2023-05-11T17:06:58.268Z,96420.63
2023-05-11T17:09:24.530Z,96417.00
2023-05-11T17:11:50.774Z,96417.00
2023-05-11T17:14:17.029Z,96421.81
2023-05-11T17:16:43.399Z,96415.41
2023-05-11T17:19:09.808Z,96414.91
2023-05-11T17:21:36.115Z,96411.69
2023-05-11T17:24:02.357Z,96418.81
2023-05-11T17:26:39.255Z,96419.44
2023-05-11T17:29:13.146Z,96418.94
2023-05-11T17:31:39.582Z,96419.53
2023-05-11T17:34:06.195Z,96424.56
2023-05-11T17:36:32.579Z,96421.22
2023-05-11T17:38:58.842Z,96425.63
2023-05-11T17:41:25.121Z,96423.22
2023-05-11T17:43:51.393Z,96431.66
2023-05-11T17:46:17.723Z,96430.94
2023-05-11T17:48:44.015Z,96427.94
2023-05-11T17:51:10.289Z,96433.88
2023-05-11T17:53:36.607Z,96438.88
2023-05-11T17:56:02.865Z,96433.84
2023-05-11T17:58:29.141Z,96444.84
2023-05-11T18:00:55.457Z,96451.72
2023-05-11T18:03:21.873Z,96448.59
2023-05-11T18:05:49.255Z,96445.72
2023-05-11T18:08:15.712Z,96439.38
2023-05-11T18:10:42.071Z,96443.53
2023-05-11T18:13:08.341Z,96449.31
2023-05-11T18:15:34.601Z,96443.34
2023-05-11T18:18:00.866Z,96451.44
2023-05-11T18:20:27.168Z,96450.56
2023-05-11T18:22:53.456Z,96460.69
2023-05-11T18:25:19.753Z,96454.78
2023-05-11T18:27:46.016Z,96459.16
2023-05-11T18:30:12.279Z,96462.31
2023-05-11T18:32:38.554Z,96463.34
2023-05-11T18:35:04.830Z,96471.13
2023-05-11T18:37:31.110Z,96464.50
2023-05-11T18:39:57.381Z,96466.09
2023-05-11T18:42:23.628Z,96464.50
2023-05-11T18:44:49.929Z,96466.53
2023-05-11T18:47:16.274Z,96465.22
2023-05-11T18:49:42.596Z,96471.53
2023-05-11T18:52:08.888Z,96469.66
2023-05-11T18:54:35.130Z,96476.94
2023-05-11T18:57:01.403Z,96472.44
2023-05-11T18:59:27.655Z,96477.09
2023-05-11T19:01:54.066Z,96486.06
2023-05-11T19:04:20.438Z,96493.13
2023-05-11T19:06:46.708Z,96492.53
2023-05-11T19:09:12.982Z,96492.25
2023-05-11T19:11:39.219Z,96490.66
2023-05-11T19:14:05.503Z,96492.03
2023-05-11T19:16:31.807Z,96494.25
2023-05-11T19:18:58.179Z,96496.16
2023-05-11T19:21:24.468Z,96504.81
2023-05-11T19:23:50.708Z,96502.25
2023-05-11T19:26:16.968Z,96508.75
2023-05-11T19:28:43.238Z,96513.84
2023-05-11T19:31:09.629Z,96512.53
2023-05-11T19:33:35.924Z,96518.06
2023-05-11T19:36:02.193Z,96522.66
2023-05-11T19:38:28.476Z,96526.31
2023-05-11T19:40:54.780Z,96533.25
2023-05-11T19:43:21.510Z,96531.94
2023-05-11T19:45:47.808Z,96532.31
2023-05-11T19:48:14.116Z,96529.38
2023-05-11T19:50:40.429Z,96537.22
2023-05-11T19:53:06.720Z,96539.47
2023-05-11T19:55:32.999Z,96536.84
2023-05-11T19:57:59.305Z,96539.34
2023-05-11T20:00:25.604Z,96543.63
2023-05-11T20:02:51.961Z,96547.69
2023-05-11T20:05:18.353Z,96544.97
2023-05-11T20:07:44.643Z,96548.19
2023-05-11T20:10:10.977Z,96551.19
2023-05-11T20:12:37.335Z,96547.69
2023-05-11T20:15:03.624Z,96549.06
2023-05-11T20:17:29.930Z,96545.84
2023-05-11T20:19:56.301Z,96547.44
2023-05-11T20:22:22.602Z,96543.72
2023-05-11T20:24:48.899Z,96540.22
2023-05-11T20:27:15.191Z,96540.50
2023-05-11T20:29:41.504Z,96548.25
2023-05-11T20:32:07.818Z,96542.91
2023-05-11T20:34:34.173Z,96539.69
2023-05-11T20:37:00.531Z,96544.78
2023-05-11T20:39:26.790Z,96545.31
2023-05-11T20:41:53.049Z,96541.28
2023-05-11T20:44:19.322Z,96547.72
2023-05-11T20:46:45.625Z,96551.75
2023-05-11T20:49:11.921Z,96544.22
2023-05-11T20:51:38.184Z,96551.50
2023-05-11T20:54:04.453Z,96550.69
2023-05-11T20:56:30.720Z,96553.38
2023-05-11T20:58:56.988Z,96546.13
2023-05-11T21:01:23.261Z,96550.13
2023-05-11T21:03:49.585Z,96553.88
2023-05-11T21:06:15.883Z,96550.41
2023-05-11T21:08:42.172Z,96540.19
2023-05-11T21:11:08.491Z,96541.00
2023-05-11T21:13:34.743Z,96543.16
2023-05-11T21:16:01.053Z,96542.63
2023-05-11T21:18:27.337Z,96537.25
2023-05-11T21:20:53.615Z,96543.72
2023-05-11T21:23:19.925Z,96537.81
2023-05-11T21:25:46.208Z,96537.25
2023-05-11T21:28:12.488Z,96541.56
2023-05-11T21:30:38.780Z,96541.00
2023-05-11T21:33:05.122Z,96540.22
2023-05-11T21:35:31.418Z,96539.94
2023-05-11T21:37:57.708Z,96537.81
2023-05-11T21:40:24.014Z,96535.13
2023-05-11T21:42:50.278Z,96538.34
2023-05-11T21:45:16.716Z,96539.94
2023-05-11T21:47:42.987Z,96532.97
2023-05-11T21:50:09.317Z,96539.69
2023-05-11T21:52:35.559Z,96540.47
2023-05-11T21:55:01.873Z,96541.03
2023-05-11T21:57:28.190Z,96542.34
2023-05-11T21:59:54.452Z,96535.91
2023-05-11T22:02:20.703Z,96541.28
2023-05-11T22:04:46.941Z,96541.56
2023-05-11T22:07:13.195Z,96541.00
2023-05-11T22:09:39.469Z,96537.25
2023-05-11T22:12:05.762Z,96537.25
2023-05-11T22:14:32.025Z,96537.00
2023-05-11T22:16:58.369Z,96539.16
2023-05-11T22:19:24.647Z,96536.19
2023-05-11T22:21:50.969Z,96538.59
2023-05-11T22:24:17.248Z,96535.38
2023-05-11T22:26:44.569Z,96530.81
2023-05-11T22:29:10.880Z,96534.03
2023-05-11T22:31:37.189Z,96537.00
2023-05-11T22:34:03.482Z,96536.19
2023-05-11T22:36:29.724Z,96535.13
2023-05-11T22:38:55.997Z,96538.06
2023-05-11T22:41:22.277Z,96529.75
2023-05-11T22:43:48.559Z,96531.91
2023-05-11T22:46:14.893Z,96531.34
2023-05-11T22:48:41.208Z,96529.75
2023-05-11T22:51:07.449Z,96537.00
2023-05-11T22:53:33.756Z,96532.16
2023-05-11T22:56:00.013Z,96531.91
2023-05-11T22:58:26.268Z,96536.72
2023-05-11T23:00:52.527Z,96532.16
2023-05-11T23:03:18.864Z,96530.03
2023-05-11T23:05:45.161Z,96531.63
2023-05-11T23:08:11.406Z,96524.38
2023-05-11T23:10:37.675Z,96519.00
2023-05-11T23:13:03.935Z,96527.81
2023-05-11T23:15:30.177Z,96520.31
2023-05-11T23:17:56.624Z,96517.66
2023-05-11T23:20:22.937Z,96516.56
2023-05-11T23:22:49.176Z,96523.03
2023-05-11T23:25:15.430Z,96517.94
2023-05-11T23:27:41.681Z,96521.97
2023-05-11T23:30:07.931Z,96516.28
2023-05-11T23:32:34.219Z,96521.97
2023-05-11T23:35:00.551Z,96525.16
2023-05-11T23:37:26.827Z,96524.63
2023-05-11T23:39:53.072Z,96519.25
2023-05-11T23:42:19.330Z,96524.91
2023-05-11T23:44:45.584Z,96523.31
2023-05-11T23:47:11.848Z,96527.28
2023-05-11T23:49:38.151Z,96529.47
2023-05-11T23:52:04.415Z,96523.56
2023-05-11T23:54:30.723Z,96529.22
2023-05-11T23:56:56.984Z,96527.31
2023-05-11T23:59:23.261Z,96523.84
